createdAt,value
2019-04-29T00:01:31.782Z,8.12
2019-04-29T00:06:39.578Z,9.99
2019-04-29T00:11:47.277Z,7.52
2019-04-29T00:16:55.238Z,7.95
2019-04-29T00:22:03.166Z,7.84
2019-04-29T00:27:11.198Z,7.79
2019-04-29T00:32:19.058Z,7.26
2019-04-29T00:37:27.915Z,7.66
2019-04-29T00:42:35.909Z,8.44
2019-04-29T00:47:43.790Z,8.63
2019-04-29T00:52:51.664Z,7.58
2019-04-29T00:57:59.740Z,8.02
2019-04-29T01:03:08.679Z,8.10
2019-04-29T01:08:17.494Z,8.04
2019-04-29T01:13:25.340Z,8.46
2019-04-29T01:18:33.117Z,7.72
2019-04-29T01:23:41.258Z,8.21
2019-04-29T01:28:49.556Z,7.17
2019-04-29T01:33:57.341Z,7.91
2019-04-29T01:39:05.251Z,7.98
2019-04-29T01:44:13.018Z,8.29
2019-04-29T01:49:20.795Z,7.85
2019-04-29T01:54:29.966Z,11.34
2019-04-29T01:59:38.594Z,7.99
2019-04-29T02:04:46.294Z,8.65
2019-04-29T02:09:54.042Z,8.78
2019-04-29T02:15:01.792Z,7.61
2019-04-29T02:20:10.003Z,7.58
2019-04-29T02:25:18.366Z,7.56
2019-04-29T02:30:26.287Z,9.07
2019-04-29T02:35:34.441Z,8.88
2019-04-29T02:40:42.330Z,9.04
2019-04-29T02:45:50.075Z,8.21
2019-04-29T02:50:57.901Z,8.93
2019-04-29T02:56:05.651Z,8.88
2019-04-29T03:01:13.370Z,9.05
2019-04-29T03:06:24.156Z,9.10
2019-04-29T03:11:21.921Z,8.41
2019-04-29T03:16:29.722Z,9.70
2019-04-29T03:21:37.614Z,11.28
2019-04-29T03:26:45.558Z,10.46
2019-04-29T03:31:53.304Z,14.54
2019-04-29T03:37:01.032Z,10.97
2019-04-29T03:42:09.939Z,12.37
2019-04-29T03:47:18.954Z,12.24
2019-04-29T03:52:25.365Z,12.59
2019-04-29T03:57:41.439Z,12.39
2019-04-29T04:02:39.322Z,14.48
2019-04-29T04:07:49.319Z,13.74
2019-04-29T04:12:58.457Z,13.38
2019-04-29T04:18:06.163Z,12.86
2019-04-29T04:23:13.915Z,13.09
2019-04-29T04:28:21.643Z,15.72
2019-04-29T04:33:29.449Z,11.81
2019-04-29T04:38:37.263Z,14.14
2019-04-29T04:43:45.277Z,15.02
2019-04-29T04:48:53.131Z,14.49
2019-04-29T04:54:00.888Z,13.54
2019-04-29T04:59:08.778Z,12.58
2019-04-29T05:04:17.573Z,13.87
2019-04-29T05:09:25.458Z,15.05
2019-04-29T05:14:33.444Z,14.93
2019-04-29T05:19:41.352Z,14.62
2019-04-29T05:24:49.457Z,14.30
2019-04-29T05:29:57.462Z,13.00
2019-04-29T05:35:05.650Z,16.25
2019-04-29T05:40:14.435Z,19.65
2019-04-29T05:45:22.195Z,15.16
2019-04-29T05:50:30.378Z,17.55
2019-04-29T05:55:39.414Z,15.54
2019-04-29T06:00:48.379Z,16.65
2019-04-29T06:05:56.189Z,15.90
2019-04-29T06:11:04.333Z,15.86
2019-04-29T06:16:15.994Z,19.17
2019-04-29T06:21:19.876Z,16.30
2019-04-29T06:26:27.911Z,17.48
2019-04-29T06:31:35.808Z,16.49
2019-04-29T06:36:43.622Z,21.17
2019-04-29T06:41:53.330Z,18.89
2019-04-29T06:47:01.162Z,17.94
2019-04-29T06:52:08.879Z,15.87
2019-04-29T06:57:16.870Z,18.42
2019-04-29T07:02:24.649Z,16.23
2019-04-29T07:07:32.433Z,15.61
2019-04-29T07:12:42.731Z,14.88
2019-04-29T07:17:47.957Z,15.44
2019-04-29T07:22:56.436Z,14.38
2019-04-29T07:28:03.187Z,15.62
2019-04-29T07:33:13.313Z,14.57
2019-04-29T07:38:13.859Z,17.41
2019-04-29T07:43:11.657Z,17.99
2019-04-29T07:48:19.842Z,21.17
2019-04-29T07:53:35.977Z,26.23
2019-04-29T07:58:35.980Z,29.09
2019-04-29T08:03:43.790Z,27.42
2019-04-29T08:08:55.076Z,30.23
2019-04-29T08:14:00.355Z,39.82
2019-04-29T08:19:08.165Z,36.55
2019-04-29T08:24:17.042Z,38.54
2019-04-29T08:29:23.911Z,43.67
2019-04-29T08:34:31.642Z,45.72
2019-04-29T08:39:39.537Z,44.25
2019-04-29T08:44:47.578Z,36.39
2019-04-29T08:49:55.496Z,39.33
2019-04-29T08:55:03.254Z,43.54
2019-04-29T09:00:11.022Z,41.08
2019-04-29T09:05:18.776Z,41.00
2019-04-29T09:10:26.728Z,36.69
2019-04-29T09:15:35.606Z,34.21
2019-04-29T09:20:44.502Z,36.85
2019-04-29T09:26:02.369Z,35.61
2019-04-29T09:30:59.655Z,36.38
2019-04-29T09:36:09.615Z,36.72
2019-04-29T09:41:14.822Z,32.69
2019-04-29T09:46:22.658Z,35.20
2019-04-29T09:51:30.780Z,33.58
2019-04-29T09:56:38.982Z,30.19
2019-04-29T10:01:50.566Z,31.82
2019-04-29T10:06:54.214Z,32.99
2019-04-29T10:12:02.033Z,28.45
2019-04-29T10:17:11.279Z,28.52
2019-04-29T10:22:17.139Z,27.39
2019-04-29T10:27:24.982Z,31.57
2019-04-29T10:32:32.759Z,23.37
2019-04-29T10:37:41.516Z,24.93
2019-04-29T10:42:49.371Z,23.48
2019-04-29T10:47:57.142Z,23.23
2019-04-29T10:53:05.216Z,21.02
2019-04-29T10:58:13.501Z,21.64
2019-04-29T11:03:25.100Z,23.35
2019-04-29T11:08:28.826Z,23.78
2019-04-29T11:13:45.646Z,22.21
2019-04-29T11:18:44.383Z,20.75
2019-04-29T11:23:54.726Z,20.84
2019-04-29T11:29:14.829Z,20.53
2019-04-29T11:34:05.540Z,20.16
2019-04-29T11:39:13.819Z,19.03
2019-04-29T11:44:21.881Z,13.63
2019-04-29T11:49:28.021Z,14.05
2019-04-29T11:54:37.464Z,13.20
2019-04-29T11:59:46.350Z,13.14
2019-04-29T12:04:54.114Z,13.24
2019-04-29T12:10:06.093Z,13.82
2019-04-29T12:15:13.661Z,8.00
2019-04-29T12:20:18.995Z,6.29
2019-04-29T12:25:29.264Z,6.31
2019-04-29T12:30:36.391Z,7.18
2019-04-29T12:35:51.806Z,6.34
2019-04-29T12:40:55.178Z,5.85
2019-04-29T12:45:53.604Z,5.85
2019-04-29T12:50:58.380Z,5.94
2019-04-29T12:56:07.186Z,6.84
2019-04-29T13:01:14.264Z,6.76
2019-04-29T13:06:24.073Z,7.24
2019-04-29T13:11:37.536Z,8.05
2019-04-29T13:16:36.844Z,7.34
2019-04-29T13:21:44.670Z,7.34
2019-04-29T13:26:52.399Z,8.18
2019-04-29T13:32:01.796Z,7.86
2019-04-29T13:37:12.257Z,8.04
2019-04-29T13:42:15.797Z,8.57
2019-04-29T13:47:28.487Z,10.26
2019-04-29T13:52:31.289Z,8.84
2019-04-29T13:57:39.539Z,9.94
2019-04-29T14:02:58.377Z,9.85
2019-04-29T14:07:54.842Z,12.48
2019-04-29T14:13:10.869Z,13.62
2019-04-29T14:18:11.634Z,15.79
2019-04-29T14:23:18.501Z,15.86
2019-04-29T14:28:26.519Z,19.42
2019-04-29T14:33:34.399Z,21.25
2019-04-29T14:38:42.646Z,19.19
2019-04-29T14:43:50.543Z,24.61
2019-04-29T14:48:59.594Z,25.81
2019-04-29T14:54:05.839Z,28.69
2019-04-29T14:59:12.249Z,29.97
2019-04-29T15:04:19.988Z,33.63
2019-04-29T15:09:27.756Z,34.22
2019-04-29T15:14:35.969Z,35.73
2019-04-29T15:19:48.607Z,37.52
2019-04-29T15:24:51.183Z,41.54
2019-04-29T15:29:59.174Z,38.72
2019-04-29T15:35:07.340Z,38.83
2019-04-29T15:40:15.482Z,42.95
2019-04-29T15:45:23.313Z,40.08
2019-04-29T15:50:37.224Z,43.14
2019-04-29T15:55:41.450Z,41.05
2019-04-29T16:00:50.280Z,40.21
2019-04-29T16:06:19.965Z,39.59
2019-04-29T16:11:05.521Z,40.61
2019-04-29T16:16:13.479Z,35.44
2019-04-29T16:21:22.678Z,39.83
2019-04-29T16:26:32.081Z,40.26
2019-04-29T16:31:37.994Z,40.88
2019-04-29T16:36:49.998Z,39.44
2019-04-29T16:41:58.473Z,38.19
2019-04-29T16:46:56.072Z,38.50
2019-04-29T16:52:04.027Z,41.74
2019-04-29T16:57:12.279Z,44.71
2019-04-29T17:02:20.301Z,48.92
2019-04-29T17:07:28.089Z,42.15
2019-04-29T17:12:37.998Z,40.97
2019-04-29T17:17:44.965Z,36.04
2019-04-29T17:22:56.729Z,34.26
2019-04-29T17:27:55.681Z,34.24
2019-04-29T17:33:04.271Z,37.19
2019-04-29T17:38:10.998Z,42.10
2019-04-29T17:43:18.782Z,38.69
2019-04-29T17:48:27.861Z,41.31
2019-04-29T17:53:35.750Z,43.79
2019-04-29T17:58:43.934Z,39.82
2019-04-29T18:03:51.054Z,40.73
2019-04-29T18:09:00.081Z,41.92
2019-04-29T18:14:07.871Z,39.44
2019-04-29T18:19:17.374Z,37.33
2019-04-29T18:24:23.288Z,41.46
2019-04-29T18:29:36.403Z,38.52
2019-04-29T18:34:38.766Z,41.91
2019-04-29T18:39:46.962Z,41.71
2019-04-29T18:44:59.968Z,41.27
2019-04-29T18:50:02.741Z,40.94
2019-04-29T18:55:10.977Z,38.37
2019-04-29T19:00:19.888Z,37.61
2019-04-29T19:05:32.375Z,42.41
2019-04-29T19:10:37.239Z,37.34
2019-04-29T19:15:46.981Z,32.09
2019-04-29T19:20:52.675Z,31.37
2019-04-29T19:25:57.152Z,36.12
2019-04-29T19:31:09.445Z,35.46
2019-04-29T19:36:17.173Z,37.40
2019-04-29T19:41:45.459Z,36.37
2019-04-29T19:46:24.206Z,40.99
2019-04-29T19:51:28.763Z,40.26
2019-04-29T19:56:36.954Z,41.78
2019-04-29T20:01:48.648Z,43.19
2019-04-29T20:06:57.104Z,45.06
2019-04-29T20:11:59.977Z,43.24
2019-04-29T20:17:12.954Z,43.65
2019-04-29T20:22:22.732Z,43.57
2019-04-29T20:27:21.732Z,38.69
2019-04-29T20:32:31.762Z,39.44
2019-04-29T20:37:37.127Z,40.83
2019-04-29T20:42:47.788Z,42.03
2019-04-29T20:47:56.164Z,42.36
2019-04-29T20:53:05.504Z,44.23
2019-04-29T20:58:03.763Z,42.96
2019-04-29T21:03:09.596Z,43.78
2019-04-29T21:08:19.120Z,41.02
2019-04-29T21:13:25.735Z,40.96
2019-04-29T21:18:32.007Z,42.19
2019-04-29T21:23:40.093Z,45.97
2019-04-29T21:28:48.266Z,44.65
2019-04-29T21:33:58.862Z,43.33
2019-04-29T21:39:06.110Z,43.95
2019-04-29T21:44:11.161Z,40.84
2019-04-29T21:49:19.278Z,44.50
2019-04-29T21:54:27.447Z,46.69
2019-04-29T21:59:35.780Z,42.37
2019-04-29T22:04:44.953Z,44.77
2019-04-29T22:09:50.979Z,46.98
2019-04-29T22:14:59.534Z,45.43
2019-04-29T22:20:07.730Z,43.28
2019-04-29T22:25:15.753Z,44.01
2019-04-29T22:30:22.820Z,40.10
2019-04-29T22:35:32.816Z,44.38
2019-04-29T22:40:41.111Z,45.56
2019-04-29T22:45:47.295Z,42.18
2019-04-29T22:50:55.669Z,44.27
2019-04-29T22:56:03.643Z,43.85
2019-04-29T23:01:11.983Z,42.78
2019-04-29T23:06:21.417Z,45.96
2019-04-29T23:11:29.333Z,44.72
2019-04-29T23:16:38.789Z,41.73
2019-04-29T23:21:47.253Z,42.16
2019-04-29T23:26:54.897Z,42.79
2019-04-29T23:32:06.790Z,43.07
2019-04-29T23:37:09.530Z,42.67
2019-04-29T23:42:17.378Z,43.53
2019-04-29T23:47:26.298Z,42.23
2019-04-29T23:52:35.933Z,41.52
2019-04-29T23:57:41.713Z,44.83
